sensor_id;sensor_type;location;lat;lon;timestamp;temperature;humidity
38798;SHT11;24546;52.240;16.826;2022-11-20T00:01:36;2.00;99.90
38798;SHT11;24546;52.240;16.826;2022-11-20T00:06:37;2.00;99.90
38798;SHT11;24546;52.240;16.826;2022-11-20T00:11:40;2.00;99.90
38798;SHT11;24546;52.240;16.826;2022-11-20T00:16:42;2.00;99.90
38798;SHT11;24546;52.240;16.826;2022-11-20T00:21:43;1.90;99.90
38798;SHT11;24546;52.240;16.826;2022-11-20T00:26:46;1.90;99.90
38798;SHT11;24546;52.240;16.826;2022-11-20T00:31:47;1.90;99.90
38798;SHT11;24546;52.240;16.826;2022-11-20T00:36:48;1.90;99.90
38798;SHT11;24546;52.240;16.826;2022-11-20T00:41:49;1.90;99.90
38798;SHT11;24546;52.240;16.826;2022-11-20T00:46:51;2.10;99.90
38798;SHT11;24546;52.240;16.826;2022-11-20T00:51:51;1.80;99.90
38798;SHT11;24546;52.240;16.826;2022-11-20T00:56:53;1.70;99.90
38798;SHT11;24546;52.240;16.826;2022-11-20T01:01:54;1.60;99.90
38798;SHT11;24546;52.240;16.826;2022-11-20T01:06:54;1.60;99.90
38798;SHT11;24546;52.240;16.826;2022-11-20T01:11:55;1.50;99.90
38798;SHT11;24546;52.240;16.826;2022-11-20T01:16:56;1.60;99.90
38798;SHT11;24546;52.240;16.826;2022-11-20T01:21:57;1.60;99.90
38798;SHT11;24546;52.240;16.826;2022-11-20T01:26:58;1.70;99.90
38798;SHT11;24546;52.240;16.826;2022-11-20T01:32:00;1.60;99.90
38798;SHT11;24546;52.240;16.826;2022-11-20T01:37:01;1.60;99.90
38798;SHT11;24546;52.240;16.826;2022-11-20T01:42:02;1.80;99.90
38798;SHT11;24546;52.240;16.826;2022-11-20T01:52:46;1.70;99.90
38798;SHT11;24546;52.240;16.826;2022-11-20T01:57:48;1.60;99.90
38798;SHT11;24546;52.240;16.826;2022-11-20T02:03:01;1.50;99.90
38798;SHT11;24546;52.240;16.826;2022-11-20T02:08:05;1.50;99.90
38798;SHT11;24546;52.240;16.826;2022-11-20T02:13:06;1.50;99.90
38798;SHT11;24546;52.240;16.826;2022-11-20T02:18:26;1.50;99.90
38798;SHT11;24546;52.240;16.826;2022-11-20T02:23:33;1.50;99.90
38798;SHT11;24546;52.240;16.826;2022-11-20T02:28:36;1.40;99.90
38798;SHT11;24546;52.240;16.826;2022-11-20T02:33:37;1.50;99.90
38798;SHT11;24546;52.240;16.826;2022-11-20T02:38:38;1.60;99.90
38798;SHT11;24546;52.240;16.826;2022-11-20T02:43:41;1.60;99.90
38798;SHT11;24546;52.240;16.826;2022-11-20T02:48:42;1.50;99.90
38798;SHT11;24546;52.240;16.826;2022-11-20T02:53:43;1.30;99.90
38798;SHT11;24546;52.240;16.826;2022-11-20T02:58:44;1.40;99.90
38798;SHT11;24546;52.240;16.826;2022-11-20T03:03:47;1.40;99.90
38798;SHT11;24546;52.240;16.826;2022-11-20T03:08:52;1.50;99.90
38798;SHT11;24546;52.240;16.826;2022-11-20T03:13:53;1.40;99.90
38798;SHT11;24546;52.240;16.826;2022-11-20T03:18:54;1.30;99.90
38798;SHT11;24546;52.240;16.826;2022-11-20T03:23:55;1.30;99.90
38798;SHT11;24546;52.240;16.826;2022-11-20T03:29:01;1.40;99.90
38798;SHT11;24546;52.240;16.826;2022-11-20T03:34:03;1.50;99.90
38798;SHT11;24546;52.240;16.826;2022-11-20T03:39:04;1.60;99.90
38798;SHT11;24546;52.240;16.826;2022-11-20T03:44:08;1.40;99.90
38798;SHT11;24546;52.240;16.826;2022-11-20T03:49:09;1.50;99.90
38798;SHT11;24546;52.240;16.826;2022-11-20T03:54:10;1.50;99.90
38798;SHT11;24546;52.240;16.826;2022-11-20T03:59:11;1.60;99.90
38798;SHT11;24546;52.240;16.826;2022-11-20T04:04:12;1.70;99.90
38798;SHT11;24546;52.240;16.826;2022-11-20T04:09:13;1.80;99.90
38798;SHT11;24546;52.240;16.826;2022-11-20T04:14:15;1.80;99.90
38798;SHT11;24546;52.240;16.826;2022-11-20T04:19:22;1.80;99.90
38798;SHT11;24546;52.240;16.826;2022-11-20T04:24:22;1.80;99.90
38798;SHT11;24546;52.240;16.826;2022-11-20T04:29:23;1.90;99.90
38798;SHT11;24546;52.240;16.826;2022-11-20T04:34:24;1.90;99.90
38798;SHT11;24546;52.240;16.826;2022-11-20T04:39:25;1.90;99.90
38798;SHT11;24546;52.240;16.826;2022-11-20T04:44:26;1.90;99.90
38798;SHT11;24546;52.240;16.826;2022-11-20T04:49:27;1.90;99.90
38798;SHT11;24546;52.240;16.826;2022-11-20T04:54:27;1.90;99.90
38798;SHT11;24546;52.240;16.826;2022-11-20T04:59:28;1.90;99.90
38798;SHT11;24546;52.240;16.826;2022-11-20T05:04:29;1.90;99.90
38798;SHT11;24546;52.240;16.826;2022-11-20T05:09:30;1.90;99.90
38798;SHT11;24546;52.240;16.826;2022-11-20T05:14:32;1.90;99.90
38798;SHT11;24546;52.240;16.826;2022-11-20T05:19:33;2.00;99.90
38798;SHT11;24546;52.240;16.826;2022-11-20T05:24:33;1.90;99.90
38798;SHT11;24546;52.240;16.826;2022-11-20T05:29:34;1.80;99.90
38798;SHT11;24546;52.240;16.826;2022-11-20T05:34:35;1.70;99.90
38798;SHT11;24546;52.240;16.826;2022-11-20T05:39:36;1.60;99.90
38798;SHT11;24546;52.240;16.826;2022-11-20T05:44:37;1.60;99.90
38798;SHT11;24546;52.240;16.826;2022-11-20T05:49:38;1.70;99.90
38798;SHT11;24546;52.240;16.826;2022-11-20T05:54:39;1.70;99.90
38798;SHT11;24546;52.240;16.826;2022-11-20T05:59:40;1.40;99.90
38798;SHT11;24546;52.240;16.826;2022-11-20T06:04:41;1.20;99.90
38798;SHT11;24546;52.240;16.826;2022-11-20T06:09:42;1.10;99.90
38798;SHT11;24546;52.240;16.826;2022-11-20T06:14:43;1.20;99.90
38798;SHT11;24546;52.240;16.826;2022-11-20T06:19:44;1.30;99.90
38798;SHT11;24546;52.240;16.826;2022-11-20T06:24:45;1.10;99.90
38798;SHT11;24546;52.240;16.826;2022-11-20T06:29:46;1.20;99.90
38798;SHT11;24546;52.240;16.826;2022-11-20T06:34:47;1.30;99.90
38798;SHT11;24546;52.240;16.826;2022-11-20T06:39:48;1.40;99.90
38798;SHT11;24546;52.240;16.826;2022-11-20T06:44:49;1.50;99.90
38798;SHT11;24546;52.240;16.826;2022-11-20T06:49:49;1.50;99.90
38798;SHT11;24546;52.240;16.826;2022-11-20T06:54:50;1.50;99.90
38798;SHT11;24546;52.240;16.826;2022-11-20T06:59:51;1.60;99.90
38798;SHT11;24546;52.240;16.826;2022-11-20T07:04:52;1.60;99.90
38798;SHT11;24546;52.240;16.826;2022-11-20T07:09:53;1.40;99.90
38798;SHT11;24546;52.240;16.826;2022-11-20T07:14:54;1.50;99.90
38798;SHT11;24546;52.240;16.826;2022-11-20T07:19:54;1.40;99.90
38798;SHT11;24546;52.240;16.826;2022-11-20T07:24:55;1.50;99.90
38798;SHT11;24546;52.240;16.826;2022-11-20T07:29:56;1.40;99.90
38798;SHT11;24546;52.240;16.826;2022-11-20T07:34:57;1.40;99.90
38798;SHT11;24546;52.240;16.826;2022-11-20T07:39:58;1.40;99.90
38798;SHT11;24546;52.240;16.826;2022-11-20T07:44:59;1.60;99.90
38798;SHT11;24546;52.240;16.826;2022-11-20T07:49:59;1.50;99.90
38798;SHT11;24546;52.240;16.826;2022-11-20T07:55:00;1.60;99.90
38798;SHT11;24546;52.240;16.826;2022-11-20T08:00:05;1.70;99.90
38798;SHT11;24546;52.240;16.826;2022-11-20T08:05:12;1.70;99.90
38798;SHT11;24546;52.240;16.826;2022-11-20T08:10:14;1.80;99.90
38798;SHT11;24546;52.240;16.826;2022-11-20T08:15:16;2.10;99.90
38798;SHT11;24546;52.240;16.826;2022-11-20T08:20:17;2.10;99.90
38798;SHT11;24546;52.240;16.826;2022-11-20T08:25:18;2.20;99.90
38798;SHT11;24546;52.240;16.826;2022-11-20T08:30:19;2.30;99.90
38798;SHT11;24546;52.240;16.826;2022-11-20T08:35:23;2.20;99.90
38798;SHT11;24546;52.240;16.826;2022-11-20T08:40:24;2.40;99.90
38798;SHT11;24546;52.240;16.826;2022-11-20T08:45:25;2.50;99.90
38798;SHT11;24546;52.240;16.826;2022-11-20T08:50:26;2.70;99.90
38798;SHT11;24546;52.240;16.826;2022-11-20T08:55:27;2.70;99.90
38798;SHT11;24546;52.240;16.826;2022-11-20T09:00:28;2.80;99.90
38798;SHT11;24546;52.240;16.826;2022-11-20T09:05:29;2.70;99.90
38798;SHT11;24546;52.240;16.826;2022-11-20T09:10:30;2.90;99.90
38798;SHT11;24546;52.240;16.826;2022-11-20T09:15:31;3.00;99.90
38798;SHT11;24546;52.240;16.826;2022-11-20T09:20:35;3.40;99.90
38798;SHT11;24546;52.240;16.826;2022-11-20T09:25:36;3.20;99.90
38798;SHT11;24546;52.240;16.826;2022-11-20T09:30:37;3.40;99.90
38798;SHT11;24546;52.240;16.826;2022-11-20T09:35:38;3.60;99.90
38798;SHT11;24546;52.240;16.826;2022-11-20T09:41:03;3.60;99.90
38798;SHT11;24546;52.240;16.826;2022-11-20T09:51:37;3.90;99.90
38798;SHT11;24546;52.240;16.826;2022-11-20T09:56:54;4.00;99.90
38798;SHT11;24546;52.240;16.826;2022-11-20T10:01:58;3.90;99.90
38798;SHT11;24546;52.240;16.826;2022-11-20T10:07:08;3.90;99.90
38798;SHT11;24546;52.240;16.826;2022-11-20T10:33:41;4.20;99.90
38798;SHT11;24546;52.240;16.826;2022-11-20T10:38:50;4.20;99.90
38798;SHT11;24546;52.240;16.826;2022-11-20T10:44:05;4.10;99.90
38798;SHT11;24546;52.240;16.826;2022-11-20T10:49:14;4.10;99.90
38798;SHT11;24546;52.240;16.826;2022-11-20T10:54:41;3.90;99.90
38798;SHT11;24546;52.240;16.826;2022-11-20T11:15:36;4.00;99.90
38798;SHT11;24546;52.240;16.826;2022-11-20T11:20:50;4.00;99.90
38798;SHT11;24546;52.240;16.826;2022-11-20T11:25:57;4.00;99.90
38798;SHT11;24546;52.240;16.826;2022-11-20T11:30:59;4.00;99.90
38798;SHT11;24546;52.240;16.826;2022-11-20T11:36:02;4.10;99.90
38798;SHT11;24546;52.240;16.826;2022-11-20T11:41:17;4.00;99.90
38798;SHT11;24546;52.240;16.826;2022-11-20T11:51:21;3.90;99.90
38798;SHT11;24546;52.240;16.826;2022-11-20T11:56:23;3.80;99.90
38798;SHT11;24546;52.240;16.826;2022-11-20T12:06:31;3.70;99.90
38798;SHT11;24546;52.240;16.826;2022-11-20T12:16:54;3.80;99.90
38798;SHT11;24546;52.240;16.826;2022-11-20T12:27:51;3.80;99.90
38798;SHT11;24546;52.240;16.826;2022-11-20T12:43:52;3.90;99.90
38798;SHT11;24546;52.240;16.826;2022-11-20T12:49:41;3.90;99.90
38798;SHT11;24546;52.240;16.826;2022-11-20T13:00:22;3.90;99.90
38798;SHT11;24546;52.240;16.826;2022-11-20T13:16:22;4.10;99.90
38798;SHT11;24546;52.240;16.826;2022-11-20T13:21:45;4.00;99.90
38798;SHT11;24546;52.240;16.826;2022-11-20T13:26:47;4.10;99.90
38798;SHT11;24546;52.240;16.826;2022-11-20T13:31:48;4.10;99.90
38798;SHT11;24546;52.240;16.826;2022-11-20T13:36:51;4.10;99.90
38798;SHT11;24546;52.240;16.826;2022-11-20T13:41:57;4.10;99.90
38798;SHT11;24546;52.240;16.826;2022-11-20T13:47:01;4.10;99.90
38798;SHT11;24546;52.240;16.826;2022-11-20T14:02:26;4.10;99.90
38798;SHT11;24546;52.240;16.826;2022-11-20T14:07:49;4.10;99.90
38798;SHT11;24546;52.240;16.826;2022-11-20T14:12:53;4.00;99.90
38798;SHT11;24546;52.240;16.826;2022-11-20T14:17:54;3.90;99.90
38798;SHT11;24546;52.240;16.826;2022-11-20T14:22:56;3.90;99.90
38798;SHT11;24546;52.240;16.826;2022-11-20T14:28:03;3.80;99.90
38798;SHT11;24546;52.240;16.826;2022-11-20T14:33:05;3.70;99.90
38798;SHT11;24546;52.240;16.826;2022-11-20T14:38:12;3.80;99.90
38798;SHT11;24546;52.240;16.826;2022-11-20T14:43:19;3.70;99.90
38798;SHT11;24546;52.240;16.826;2022-11-20T14:48:24;3.60;99.90
38798;SHT11;24546;52.240;16.826;2022-11-20T14:53:27;3.70;99.90
38798;SHT11;24546;52.240;16.826;2022-11-20T14:58:30;3.50;99.90
38798;SHT11;24546;52.240;16.826;2022-11-20T15:03:40;3.40;99.90
38798;SHT11;24546;52.240;16.826;2022-11-20T15:08:53;3.30;99.90
38798;SHT11;24546;52.240;16.826;2022-11-20T15:13:54;3.20;99.90
38798;SHT11;24546;52.240;16.826;2022-11-20T15:18:55;3.20;99.90
38798;SHT11;24546;52.240;16.826;2022-11-20T15:23:56;3.10;99.90
38798;SHT11;24546;52.240;16.826;2022-11-20T15:28:58;3.10;99.90
38798;SHT11;24546;52.240;16.826;2022-11-20T15:34:01;3.20;99.90
38798;SHT11;24546;52.240;16.826;2022-11-20T15:39:02;3.00;99.90
38798;SHT11;24546;52.240;16.826;2022-11-20T15:44:04;3.00;99.90
38798;SHT11;24546;52.240;16.826;2022-11-20T15:49:06;3.00;99.90
38798;SHT11;24546;52.240;16.826;2022-11-20T15:54:15;2.90;99.90
38798;SHT11;24546;52.240;16.826;2022-11-20T15:59:18;2.90;99.90
38798;SHT11;24546;52.240;16.826;2022-11-20T16:04:19;2.90;99.90
38798;SHT11;24546;52.240;16.826;2022-11-20T16:09:20;2.90;99.90
38798;SHT11;24546;52.240;16.826;2022-11-20T16:14:25;2.90;99.90
38798;SHT11;24546;52.240;16.826;2022-11-20T16:19:44;2.90;99.90
38798;SHT11;24546;52.240;16.826;2022-11-20T16:24:45;2.80;99.90
38798;SHT11;24546;52.240;16.826;2022-11-20T16:29:46;2.80;99.90
38798;SHT11;24546;52.240;16.826;2022-11-20T16:34:50;2.80;99.90
38798;SHT11;24546;52.240;16.826;2022-11-20T16:39:51;2.80;99.90
38798;SHT11;24546;52.240;16.826;2022-11-20T16:44:52;2.80;99.90
38798;SHT11;24546;52.240;16.826;2022-11-20T16:49:53;2.80;99.90
38798;SHT11;24546;52.240;16.826;2022-11-20T16:54:54;2.80;99.90
38798;SHT11;24546;52.240;16.826;2022-11-20T16:59:55;2.70;99.90
38798;SHT11;24546;52.240;16.826;2022-11-20T17:04:56;2.80;99.90
38798;SHT11;24546;52.240;16.826;2022-11-20T17:10:00;2.80;99.90
38798;SHT11;24546;52.240;16.826;2022-11-20T17:15:01;2.80;99.90
38798;SHT11;24546;52.240;16.826;2022-11-20T17:20:03;2.70;99.90
38798;SHT11;24546;52.240;16.826;2022-11-20T17:25:06;2.70;99.90
38798;SHT11;24546;52.240;16.826;2022-11-20T17:30:07;2.60;99.90
38798;SHT11;24546;52.240;16.826;2022-11-20T17:35:08;2.60;99.90
38798;SHT11;24546;52.240;16.826;2022-11-20T17:40:10;2.60;99.90
38798;SHT11;24546;52.240;16.826;2022-11-20T17:45:11;2.60;99.90
38798;SHT11;24546;52.240;16.826;2022-11-20T17:50:12;2.50;99.90
38798;SHT11;24546;52.240;16.826;2022-11-20T17:55:13;2.50;99.90
38798;SHT11;24546;52.240;16.826;2022-11-20T18:00:15;2.40;99.90
38798;SHT11;24546;52.240;16.826;2022-11-20T18:05:17;2.40;99.90
38798;SHT11;24546;52.240;16.826;2022-11-20T18:10:18;2.40;99.90
38798;SHT11;24546;52.240;16.826;2022-11-20T18:15:19;2.40;99.90
38798;SHT11;24546;52.240;16.826;2022-11-20T18:20:20;2.40;99.90
38798;SHT11;24546;52.240;16.826;2022-11-20T18:25:21;2.30;99.90
38798;SHT11;24546;52.240;16.826;2022-11-20T18:30:23;2.40;99.90
38798;SHT11;24546;52.240;16.826;2022-11-20T18:35:25;2.40;99.90
38798;SHT11;24546;52.240;16.826;2022-11-20T18:40:28;2.40;99.90
38798;SHT11;24546;52.240;16.826;2022-11-20T18:45:30;2.30;99.90
38798;SHT11;24546;52.240;16.826;2022-11-20T18:50:32;2.20;99.90
38798;SHT11;24546;52.240;16.826;2022-11-20T18:55:34;2.20;99.90
38798;SHT11;24546;52.240;16.826;2022-11-20T19:00:35;2.20;99.90
38798;SHT11;24546;52.240;16.826;2022-11-20T19:05:36;2.20;99.90
38798;SHT11;24546;52.240;16.826;2022-11-20T19:10:38;2.20;99.90
38798;SHT11;24546;52.240;16.826;2022-11-20T19:15:42;2.10;99.90
38798;SHT11;24546;52.240;16.826;2022-11-20T19:20:43;2.10;99.90
38798;SHT11;24546;52.240;16.826;2022-11-20T19:25:44;2.00;99.90
38798;SHT11;24546;52.240;16.826;2022-11-20T19:30:45;2.00;99.90
38798;SHT11;24546;52.240;16.826;2022-11-20T19:35:46;2.00;99.90
38798;SHT11;24546;52.240;16.826;2022-11-20T19:40:47;1.90;99.90
38798;SHT11;24546;52.240;16.826;2022-11-20T19:45:48;1.90;99.90
38798;SHT11;24546;52.240;16.826;2022-11-20T19:50:49;1.90;99.90
38798;SHT11;24546;52.240;16.826;2022-11-20T19:55:57;1.90;99.90
38798;SHT11;24546;52.240;16.826;2022-11-20T20:01:19;1.90;99.90
38798;SHT11;24546;52.240;16.826;2022-11-20T20:06:25;1.80;99.90
38798;SHT11;24546;52.240;16.826;2022-11-20T20:11:28;1.80;99.90
38798;SHT11;24546;52.240;16.826;2022-11-20T20:16:30;1.80;99.90
38798;SHT11;24546;52.240;16.826;2022-11-20T20:21:32;1.80;99.90
38798;SHT11;24546;52.240;16.826;2022-11-20T20:26:34;1.70;99.90
38798;SHT11;24546;52.240;16.826;2022-11-20T20:31:35;1.70;99.90
38798;SHT11;24546;52.240;16.826;2022-11-20T20:36:36;1.60;99.90
38798;SHT11;24546;52.240;16.826;2022-11-20T20:41:37;1.60;99.90
38798;SHT11;24546;52.240;16.826;2022-11-20T20:46:41;1.50;99.90
38798;SHT11;24546;52.240;16.826;2022-11-20T20:51:43;1.40;99.90
38798;SHT11;24546;52.240;16.826;2022-11-20T20:56:44;1.40;99.90
38798;SHT11;24546;52.240;16.826;2022-11-20T21:01:45;1.30;99.90
38798;SHT11;24546;52.240;16.826;2022-11-20T21:06:46;1.20;99.90
38798;SHT11;24546;52.240;16.826;2022-11-20T21:11:47;1.00;99.90
38798;SHT11;24546;52.240;16.826;2022-11-20T21:16:48;1.00;99.90
38798;SHT11;24546;52.240;16.826;2022-11-20T21:21:49;0.80;99.90
38798;SHT11;24546;52.240;16.826;2022-11-20T21:27:00;0.70;99.90
38798;SHT11;24546;52.240;16.826;2022-11-20T21:32:01;0.70;99.90
38798;SHT11;24546;52.240;16.826;2022-11-20T21:37:02;0.70;99.90
38798;SHT11;24546;52.240;16.826;2022-11-20T21:42:03;0.60;99.90
38798;SHT11;24546;52.240;16.826;2022-11-20T21:47:04;0.50;99.90
38798;SHT11;24546;52.240;16.826;2022-11-20T21:52:04;0.50;99.90
38798;SHT11;24546;52.240;16.826;2022-11-20T21:57:05;0.60;99.90
38798;SHT11;24546;52.240;16.826;2022-11-20T22:02:15;0.50;99.90
38798;SHT11;24546;52.240;16.826;2022-11-20T22:07:18;0.50;99.90
38798;SHT11;24546;52.240;16.826;2022-11-20T22:12:19;0.50;99.90
38798;SHT11;24546;52.240;16.826;2022-11-20T22:17:20;0.50;99.90
38798;SHT11;24546;52.240;16.826;2022-11-20T22:22:41;0.40;99.90
38798;SHT11;24546;52.240;16.826;2022-11-20T22:27:45;0.40;99.90
38798;SHT11;24546;52.240;16.826;2022-11-20T22:32:46;0.30;99.90
38798;SHT11;24546;52.240;16.826;2022-11-20T22:37:49;0.20;99.90
38798;SHT11;24546;52.240;16.826;2022-11-20T22:42:50;0.20;99.90
38798;SHT11;24546;52.240;16.826;2022-11-20T22:47:51;0.10;99.90
38798;SHT11;24546;52.240;16.826;2022-11-20T22:52:52;0.30;99.90
38798;SHT11;24546;52.240;16.826;2022-11-20T22:57:53;0.00;99.90
38798;SHT11;24546;52.240;16.826;2022-11-20T23:02:54;0.00;99.90
38798;SHT11;24546;52.240;16.826;2022-11-20T23:07:55;-0.10;99.90
38798;SHT11;24546;52.240;16.826;2022-11-20T23:12:56;-0.10;99.90
38798;SHT11;24546;52.240;16.826;2022-11-20T23:17:57;-0.20;99.90
38798;SHT11;24546;52.240;16.826;2022-11-20T23:22:58;-0.30;99.90
38798;SHT11;24546;52.240;16.826;2022-11-20T23:27:58;-0.30;99.90
38798;SHT11;24546;52.240;16.826;2022-11-20T23:32:59;-0.40;99.90
38798;SHT11;24546;52.240;16.826;2022-11-20T23:38:00;-0.40;99.90
38798;SHT11;24546;52.240;16.826;2022-11-20T23:43:01;-0.50;99.90
38798;SHT11;24546;52.240;16.826;2022-11-20T23:48:18;-0.50;99.90
38798;SHT11;24546;52.240;16.826;2022-11-20T23:53:20;-0.60;99.90
38798;SHT11;24546;52.240;16.826;2022-11-20T23:58:22;-0.60;99.90
